Norrie, Colorado
Current Conditions -  °F | °C
As of 1:53 PM on Thursday 20 Nov 2014 (Local Time) from KLXV Reporting Station
Few Clouds Few Clouds  
Wind Chill: 33°   Ceiling: Unl
Heat Index: 38°   Visibility: 10mi
Dew Point:   Wind: 7mph
Humidity: 28%   Direction: 360°N
Pressure: 30.05"   Gusts: NA
Location:  39.3236°N, 106.55°W
Report Text: KLXV 202053Z AUTO 36006KT 10SM FEW080 03/M14 A3005 RMK AO2 SLP130 T00331139 56013
Loading
Personal Weather Stations






























Interactive Weather Map New forecast layout! Learn more

10-Day Weather Forecast

Advertisements
Track Severe Weather on mobile